createdAt,value
2018-08-11T00:02:23.689Z,101298.60
2018-08-11T00:04:54.320Z,101287.97
2018-08-11T00:07:24.873Z,101291.48
2018-08-11T00:09:55.565Z,101287.24
2018-08-11T00:12:26.241Z,101278.28
2018-08-11T00:14:56.941Z,101273.74
2018-08-11T00:17:29.054Z,101273.47
2018-08-11T00:19:59.736Z,101277.87
2018-08-11T00:22:30.324Z,101273.20
2018-08-11T00:25:00.899Z,101266.52
2018-08-11T00:27:32.634Z,101261.59
2018-08-11T00:30:03.840Z,101267.23
2018-08-11T00:32:34.402Z,101264.11
2018-08-11T00:35:04.960Z,101267.59
2018-08-11T00:37:35.409Z,101262.02
2018-08-11T00:40:10.327Z,101264.98
2018-08-11T00:42:41.621Z,101262.21
2018-08-11T00:45:13.620Z,101263.78
2018-08-11T00:47:44.200Z,101261.64
2018-08-11T00:50:26.372Z,101254.83
2018-08-11T00:52:57.500Z,101254.88
2018-08-11T00:55:28.075Z,101254.63
2018-08-11T00:57:58.553Z,101253.61
2018-08-11T01:00:29.146Z,101252.52
2018-08-11T01:02:59.831Z,101250.08
2018-08-11T01:05:30.391Z,101257.94
2018-08-11T01:08:00.996Z,101254.12
2018-08-11T01:10:31.686Z,101251.28
2018-08-11T01:13:02.258Z,101244.27
2018-08-11T01:15:32.946Z,101245.14
2018-08-11T01:18:03.643Z,101239.63
2018-08-11T01:20:34.128Z,101245.02
2018-08-11T01:23:04.424Z,101239.99
2018-08-11T01:25:34.881Z,101242.81
2018-08-11T01:28:05.343Z,101242.41
2018-08-11T01:30:35.960Z,101241.20
2018-08-11T01:33:06.414Z,101239.70
2018-08-11T01:35:36.908Z,101239.41
2018-08-11T01:38:07.490Z,101236.06
2018-08-11T01:40:37.993Z,101237.72
2018-08-11T01:43:08.656Z,101240.99
2018-08-11T01:45:39.006Z,101235.50
2018-08-11T01:48:09.429Z,101236.23
2018-08-11T01:50:39.988Z,101237.55
2018-08-11T01:53:10.508Z,101232.50
2018-08-11T01:55:41.052Z,101235.20
2018-08-11T01:58:11.648Z,101232.89
2018-08-11T02:00:42.031Z,101220.75
2018-08-11T02:03:12.424Z,101222.87
2018-08-11T02:05:42.869Z,101219.07
2018-08-11T02:08:13.384Z,101212.89
2018-08-11T02:10:43.855Z,101210.37
2018-08-11T02:13:14.447Z,101211.77
2018-08-11T02:15:44.819Z,101204.20
2018-08-11T02:18:15.208Z,101203.91
2018-08-11T02:20:45.576Z,101207.02
2018-08-11T02:23:16.147Z,101207.12
2018-08-11T02:25:46.528Z,101209.92
2018-08-11T02:28:17.230Z,101203.73
2018-08-11T02:30:47.815Z,101201.77
2018-08-11T02:33:18.401Z,101197.10
2018-08-11T02:35:48.897Z,101192.26
2018-08-11T02:38:19.401Z,101190.77
2018-08-11T02:40:49.924Z,101195.33
2018-08-11T02:43:20.416Z,101191.59
2018-08-11T02:45:50.980Z,101186.74
2018-08-11T02:48:21.568Z,101198.52
2018-08-11T02:50:52.181Z,101190.86
2018-08-11T02:53:22.671Z,101196.09
2018-08-11T02:55:53.016Z,101198.61
2018-08-11T02:58:23.407Z,101192.52
2018-08-11T03:00:54.048Z,101190.92
2018-08-11T03:03:24.476Z,101189.91
2018-08-11T03:05:55.079Z,101192.52
2018-08-11T03:08:25.561Z,101187.30
2018-08-11T03:10:55.809Z,101183.20
2018-08-11T03:13:26.772Z,101184.58
2018-08-11T03:15:57.263Z,101188.05
2018-08-11T03:18:27.438Z,101186.27
2018-08-11T03:20:58.070Z,101180.59
2018-08-11T03:23:28.647Z,101184.14
2018-08-11T03:25:59.088Z,101186.19
2018-08-11T03:28:29.525Z,101187.88
2018-08-11T03:30:59.958Z,101189.17
2018-08-11T03:33:30.442Z,101191.21
2018-08-11T03:36:00.967Z,101187.19
2018-08-11T03:38:31.439Z,101181.40
2018-08-11T03:41:01.919Z,101178.86
2018-08-11T03:43:32.175Z,101181.86
2018-08-11T03:46:02.605Z,101186.28
2018-08-11T03:48:33.326Z,101191.69
2018-08-11T03:51:03.832Z,101189.27
2018-08-11T03:53:34.325Z,101194.95
2018-08-11T03:56:04.814Z,101192.64
2018-08-11T03:58:35.193Z,101195.05
2018-08-11T04:01:05.731Z,101192.05
2018-08-11T04:03:36.060Z,101187.48
2018-08-11T04:06:06.544Z,101186.61
2018-08-11T04:08:36.983Z,101191.70
2018-08-11T04:11:07.691Z,101200.00
2018-08-11T04:13:38.179Z,101199.45
2018-08-11T04:16:09.048Z,101208.61
2018-08-11T04:18:39.373Z,101215.31
2018-08-11T04:21:09.812Z,101218.80
2018-08-11T04:23:40.211Z,101225.98
2018-08-11T04:26:10.602Z,101224.59
2018-08-11T04:28:41.028Z,101229.91
2018-08-11T04:31:11.446Z,101238.08
2018-08-11T04:33:41.791Z,101247.70
2018-08-11T04:36:12.216Z,101257.81
2018-08-11T04:38:42.687Z,101281.80
2018-08-11T04:41:13.631Z,101292.14
2018-08-11T04:43:43.820Z,101290.41
2018-08-11T04:46:14.275Z,101292.38
2018-08-11T04:48:45.802Z,101286.53
2018-08-11T04:51:16.232Z,101258.94
2018-08-11T04:53:46.477Z,101251.70
2018-08-11T04:56:17.016Z,101247.22
2018-08-11T04:58:47.481Z,101257.38
2018-08-11T05:01:17.907Z,101256.47
2018-08-11T05:03:48.434Z,101256.44
2018-08-11T05:06:18.784Z,101253.72
2018-08-11T05:08:49.053Z,101249.03
2018-08-11T05:11:19.677Z,101248.02
2018-08-11T05:13:50.053Z,101252.58
2018-08-11T05:16:20.539Z,101266.57
2018-08-11T05:18:51.014Z,101277.39
2018-08-11T05:21:21.300Z,101283.66
2018-08-11T05:23:51.657Z,101293.40
2018-08-11T05:26:22.278Z,101293.06
2018-08-11T05:28:52.736Z,101293.55
2018-08-11T05:31:23.192Z,101301.49
2018-08-11T05:33:53.863Z,101316.90
2018-08-11T05:36:24.264Z,101314.55
2018-08-11T05:38:54.658Z,101307.45
2018-08-11T05:41:25.143Z,101306.91
2018-08-11T05:43:55.594Z,101312.52
2018-08-11T05:46:26.215Z,101311.31
2018-08-11T05:48:56.590Z,101328.95
2018-08-11T05:51:27.080Z,101340.55
2018-08-11T05:53:57.336Z,101347.98
2018-08-11T05:56:27.807Z,101351.03
2018-08-11T05:58:58.303Z,101352.92
2018-08-11T06:01:28.820Z,101345.55
2018-08-11T06:03:59.417Z,101339.64
2018-08-11T06:06:30.075Z,101334.22
2018-08-11T06:09:00.663Z,101347.93
2018-08-11T06:11:30.912Z,101346.81
2018-08-11T06:14:01.293Z,101352.97
2018-08-11T06:16:31.779Z,101357.72
2018-08-11T06:19:02.271Z,101353.02
2018-08-11T06:21:32.843Z,101349.24
2018-08-11T06:24:03.275Z,101351.30
2018-08-11T06:26:33.812Z,101354.05
2018-08-11T06:29:04.420Z,101351.61
2018-08-11T06:31:34.874Z,101348.58
2018-08-11T06:34:05.444Z,101346.19
2018-08-11T06:36:35.973Z,101354.01
2018-08-11T06:39:12.678Z,101342.20
2018-08-11T06:41:43.848Z,101340.33
2018-08-11T06:44:14.360Z,101345.81
2018-08-11T06:46:44.844Z,101338.06
2018-08-11T06:49:15.298Z,101342.94
2018-08-11T06:51:45.764Z,101348.59
2018-08-11T06:54:16.153Z,101349.86
2018-08-11T06:56:46.648Z,101349.48
2018-08-11T06:59:17.256Z,101352.23
2018-08-11T07:01:47.500Z,101349.46
2018-08-11T07:04:17.876Z,101359.88
2018-08-11T07:06:48.491Z,101367.32
2018-08-11T07:09:18.948Z,101371.73
2018-08-11T07:11:49.710Z,101362.61
2018-08-11T07:14:20.252Z,101358.50
2018-08-11T07:16:50.725Z,101363.07
2018-08-11T07:19:21.216Z,101359.29
2018-08-11T07:21:52.310Z,101362.05
2018-08-11T07:24:22.780Z,101357.95
2018-08-11T07:26:53.031Z,101357.51
2018-08-11T07:29:23.407Z,101353.88
2018-08-11T07:31:53.751Z,101368.73
2018-08-11T07:34:24.191Z,101357.55
2018-08-11T07:36:54.455Z,101357.48
2018-08-11T07:39:24.935Z,101362.23
2018-08-11T07:41:55.517Z,101362.19
2018-08-11T07:44:25.988Z,101356.67
2018-08-11T07:46:56.591Z,101361.42
2018-08-11T07:49:26.988Z,101352.13
2018-08-11T07:51:57.333Z,101358.11
2018-08-11T07:54:27.724Z,101361.53
2018-08-11T07:56:58.105Z,101360.83
2018-08-11T07:59:28.603Z,101358.47
2018-08-11T08:01:59.003Z,101354.64
2018-08-11T08:04:29.539Z,101358.42
2018-08-11T08:07:00.028Z,101351.95
2018-08-11T08:09:30.540Z,101366.66
2018-08-11T08:12:01.223Z,101361.61
2018-08-11T08:14:31.704Z,101375.41
2018-08-11T08:17:02.078Z,101367.48
2018-08-11T08:19:32.549Z,101367.63
2018-08-11T08:22:03.048Z,101369.62
2018-08-11T08:24:33.500Z,101367.52
2018-08-11T08:27:04.105Z,101368.44
2018-08-11T08:29:34.600Z,101377.06
2018-08-11T08:32:05.294Z,101370.61
2018-08-11T08:34:35.963Z,101377.94
2018-08-11T08:37:06.322Z,101371.70
2018-08-11T08:39:36.712Z,101368.32
2018-08-11T08:42:07.316Z,101381.97
2018-08-11T08:44:37.668Z,101373.75
2018-08-11T08:47:08.540Z,101377.27
2018-08-11T08:49:39.176Z,101374.09
2018-08-11T08:52:09.632Z,101372.84
2018-08-11T08:54:39.909Z,101376.19
2018-08-11T08:57:10.639Z,101368.00
2018-08-11T08:59:41.100Z,101366.84
2018-08-11T09:02:11.708Z,101370.38
2018-08-11T09:04:42.109Z,101368.72
2018-08-11T09:07:12.537Z,101364.05
2018-08-11T09:09:43.024Z,101367.80
2018-08-11T09:12:13.403Z,101359.87
2018-08-11T09:14:43.798Z,101371.63
2018-08-11T09:17:14.245Z,101367.33
2018-08-11T09:19:44.713Z,101379.39
2018-08-11T09:22:15.130Z,101381.99
2018-08-11T09:24:45.509Z,101374.75
2018-08-11T09:27:15.855Z,101376.29
2018-08-11T09:29:46.223Z,101378.58
2018-08-11T09:32:16.824Z,101384.38
2018-08-11T09:34:47.228Z,101385.13
2018-08-11T09:37:17.912Z,101379.10
2018-08-11T09:39:48.398Z,101371.19
2018-08-11T09:42:18.881Z,101369.13
2018-08-11T09:44:49.237Z,101383.20
2018-08-11T09:47:19.748Z,101377.39
2018-08-11T09:49:50.264Z,101387.01
2018-08-11T09:52:20.808Z,101384.00
2018-08-11T09:54:51.288Z,101380.34
2018-08-11T09:57:21.750Z,101379.98
2018-08-11T09:59:52.159Z,101373.54
2018-08-11T10:02:23.148Z,101374.47
2018-08-11T10:04:53.494Z,101373.55
2018-08-11T10:07:24.081Z,101378.08
2018-08-11T10:09:54.571Z,101388.55
2018-08-11T10:12:25.073Z,101370.75
2018-08-11T10:14:55.449Z,101371.73
2018-08-11T10:17:25.800Z,101377.55
2018-08-11T10:19:56.184Z,101365.94
2018-08-11T10:22:26.664Z,101353.47
2018-08-11T10:24:57.065Z,101357.52
2018-08-11T10:27:27.319Z,101353.39
2018-08-11T10:29:57.592Z,101360.48
2018-08-11T10:32:28.196Z,101355.52
2018-08-11T10:34:58.581Z,101347.98
2018-08-11T10:37:28.804Z,101351.11
2018-08-11T10:39:59.233Z,101349.91
2018-08-11T10:42:29.599Z,101364.77
2018-08-11T10:45:00.102Z,101355.52
2018-08-11T10:47:30.747Z,101349.86
2018-08-11T10:50:01.175Z,101355.59
2018-08-11T10:52:31.406Z,101352.13
2018-08-11T10:55:01.804Z,101353.70
2018-08-11T10:57:32.389Z,101346.82
2018-08-11T11:00:02.897Z,101351.53
2018-08-11T11:02:33.125Z,101357.28
2018-08-11T11:05:03.676Z,101358.46
2018-08-11T11:07:34.132Z,101360.20
2018-08-11T11:10:04.657Z,101349.36
2018-08-11T11:12:35.202Z,101349.31
2018-08-11T11:15:06.644Z,101350.08
2018-08-11T11:17:37.119Z,101352.05
2018-08-11T11:20:10.000Z,101352.10
2018-08-11T11:22:40.764Z,101352.67
2018-08-11T11:25:11.267Z,101353.47
2018-08-11T11:27:41.746Z,101344.12
2018-08-11T11:30:12.152Z,101351.59
2018-08-11T11:32:42.744Z,101356.47
2018-08-11T11:35:13.214Z,101351.75
2018-08-11T11:37:43.475Z,101356.10
2018-08-11T11:40:13.939Z,101357.80
2018-08-11T11:42:44.452Z,101360.02
2018-08-11T11:45:14.936Z,101359.34
2018-08-11T11:47:45.432Z,101366.00
2018-08-11T11:50:15.669Z,101363.70
2018-08-11T11:52:46.171Z,101367.80
2018-08-11T11:55:16.520Z,101363.68
2018-08-11T11:57:47.159Z,101372.27
2018-08-11T12:00:17.750Z,101374.20
2018-08-11T12:02:48.229Z,101366.53
2018-08-11T12:05:18.567Z,101362.24
2018-08-11T12:07:49.163Z,101361.12
2018-08-11T12:10:19.760Z,101354.33
2018-08-11T12:12:50.214Z,101348.11
2018-08-11T12:15:20.696Z,101357.42
2018-08-11T12:17:51.219Z,101358.45
2018-08-11T12:20:22.688Z,101356.96
2018-08-11T12:22:53.248Z,101352.96
2018-08-11T12:25:23.772Z,101358.09
2018-08-11T12:27:54.351Z,101345.41
2018-08-11T12:30:24.844Z,101356.34
2018-08-11T12:32:55.295Z,101356.51
2018-08-11T12:35:25.679Z,101354.74
2018-08-11T12:37:56.242Z,101358.67
2018-08-11T12:40:26.565Z,101344.78
2018-08-11T12:42:56.953Z,101341.77
2018-08-11T12:45:27.426Z,101338.96
2018-08-11T12:47:57.758Z,101340.57
2018-08-11T12:50:28.086Z,101339.27
2018-08-11T12:52:58.679Z,101338.34
2018-08-11T12:55:29.158Z,101339.30
2018-08-11T12:57:59.609Z,101337.86
2018-08-11T13:00:30.027Z,101347.52
2018-08-11T13:03:00.479Z,101351.44
2018-08-11T13:05:30.966Z,101360.17
2018-08-11T13:08:01.547Z,101357.36
2018-08-11T13:10:32.040Z,101365.00
2018-08-11T13:13:02.388Z,101367.56
2018-08-11T13:15:32.774Z,101364.83
2018-08-11T13:18:03.153Z,101366.62
2018-08-11T13:20:33.480Z,101368.31
2018-08-11T13:23:03.992Z,101367.77
2018-08-11T13:25:34.412Z,101364.93
2018-08-11T13:28:04.891Z,101359.10
2018-08-11T13:30:35.356Z,101362.71
2018-08-11T13:33:06.335Z,101354.45
2018-08-11T13:35:36.715Z,101355.77
2018-08-11T13:38:07.250Z,101356.34
2018-08-11T13:40:37.724Z,101359.25
2018-08-11T13:43:08.150Z,101350.22
2018-08-11T13:45:38.710Z,101352.22
2018-08-11T13:48:09.327Z,101351.61
2018-08-11T13:50:39.720Z,101348.77
2018-08-11T13:53:10.287Z,101354.42
2018-08-11T13:55:40.800Z,101352.64
2018-08-11T13:58:11.507Z,101360.09
2018-08-11T14:00:41.968Z,101369.98
2018-08-11T14:03:12.368Z,101366.00
2018-08-11T14:05:42.829Z,101343.25
2018-08-11T14:08:13.327Z,101357.98
2018-08-11T14:10:43.785Z,101355.42
2018-08-11T14:13:14.267Z,101357.86
2018-08-11T14:15:44.670Z,101350.83
2018-08-11T14:18:15.024Z,101358.41
2018-08-11T14:20:45.708Z,101363.38
2018-08-11T14:23:16.221Z,101364.27
2018-08-11T14:25:46.571Z,101362.83
2018-08-11T14:28:17.059Z,101369.54
2018-08-11T14:30:47.563Z,101375.27
2018-08-11T14:33:17.828Z,101366.47
2018-08-11T14:35:48.303Z,101369.70
2018-08-11T14:38:18.874Z,101368.45
2018-08-11T14:40:49.253Z,101364.48
2018-08-11T14:43:19.873Z,101363.89
2018-08-11T14:45:50.344Z,101369.08
2018-08-11T14:48:20.711Z,101374.41
2018-08-11T14:50:51.218Z,101369.66
2018-08-11T14:53:21.891Z,101376.58
2018-08-11T14:55:52.452Z,101376.59
2018-08-11T14:58:23.044Z,101388.08
2018-08-11T15:00:53.542Z,101388.06
2018-08-11T15:03:23.916Z,101379.43
2018-08-11T15:05:54.416Z,101380.66
2018-08-11T15:08:24.865Z,101378.73
2018-08-11T15:10:55.247Z,101381.02
2018-08-11T15:13:25.823Z,101396.16
2018-08-11T15:15:56.382Z,101405.49
2018-08-11T15:18:26.927Z,101402.00
2018-08-11T15:20:57.405Z,101409.28
2018-08-11T15:23:27.760Z,101407.14
2018-08-11T15:25:58.131Z,101410.78
2018-08-11T15:28:28.540Z,101409.83
2018-08-11T15:30:59.136Z,101405.80
2018-08-11T15:33:29.456Z,101405.31
2018-08-11T15:35:59.887Z,101417.68
2018-08-11T15:38:30.436Z,101413.72
2018-08-11T15:41:00.753Z,101411.19
2018-08-11T15:43:31.221Z,101409.38
2018-08-11T15:46:01.807Z,101408.78
2018-08-11T15:48:32.192Z,101409.99
2018-08-11T15:51:02.773Z,101410.81
2018-08-11T15:53:33.366Z,101413.52
2018-08-11T15:56:03.887Z,101409.58
2018-08-11T15:58:34.300Z,101405.30
2018-08-11T16:01:04.784Z,101410.00
2018-08-11T16:03:35.174Z,101402.45
2018-08-11T16:06:05.774Z,101402.98
2018-08-11T16:08:36.261Z,101404.38
2018-08-11T16:11:06.600Z,101404.27
2018-08-11T16:13:36.980Z,101407.41
2018-08-11T16:16:07.561Z,101403.06
2018-08-11T16:18:38.068Z,101399.89
2018-08-11T16:21:08.561Z,101407.98
2018-08-11T16:23:38.788Z,101406.30
2018-08-11T16:26:09.191Z,101407.63
2018-08-11T16:28:39.579Z,101411.48
2018-08-11T16:31:09.978Z,101407.77
2018-08-11T16:33:40.360Z,101406.32
2018-08-11T16:36:10.604Z,101405.83
2018-08-11T16:38:41.316Z,101397.06
2018-08-11T16:41:11.787Z,101398.38
2018-08-11T16:43:42.292Z,101404.77
2018-08-11T16:46:12.658Z,101406.87
2018-08-11T16:48:43.048Z,101406.54
2018-08-11T16:51:13.524Z,101406.06
2018-08-11T16:53:44.212Z,101409.66
2018-08-11T16:56:14.682Z,101403.64
2018-08-11T16:58:45.028Z,101410.84
2018-08-11T17:01:15.351Z,101406.16
2018-08-11T17:03:45.687Z,101410.83
2018-08-11T17:06:16.105Z,101409.06
2018-08-11T17:08:46.694Z,101409.66
2018-08-11T17:11:17.068Z,101411.56
2018-08-11T17:13:47.455Z,101415.48
2018-08-11T17:16:17.809Z,101414.54
2018-08-11T17:18:48.291Z,101412.87
2018-08-11T17:21:18.444Z,101403.05
2018-08-11T17:23:48.934Z,101406.78
2018-08-11T17:26:19.508Z,101407.82
2018-08-11T17:28:50.141Z,101404.26
2018-08-11T17:31:20.611Z,101408.33
2018-08-11T17:33:50.845Z,101411.33
2018-08-11T17:36:21.255Z,101406.37
2018-08-11T17:38:51.842Z,101403.39
2018-08-11T17:41:22.137Z,101407.51
2018-08-11T17:43:52.613Z,101407.23
2018-08-11T17:46:22.991Z,101402.83
2018-08-11T17:48:53.353Z,101406.77
2018-08-11T17:51:23.728Z,101406.42
2018-08-11T17:53:54.130Z,101408.70
2018-08-11T17:56:24.520Z,101405.45
2018-08-11T17:58:54.739Z,101406.77
2018-08-11T18:01:25.171Z,101407.97
2018-08-11T18:03:55.619Z,101413.84
2018-08-11T18:06:26.039Z,101410.36
2018-08-11T18:08:56.422Z,101415.17
2018-08-11T18:11:26.831Z,101409.63
2018-08-11T18:13:57.352Z,101413.44
2018-08-11T18:16:27.830Z,101420.22
2018-08-11T18:18:58.809Z,101417.80
2018-08-11T18:21:29.211Z,101420.40
2018-08-11T18:24:00.512Z,101416.80
2018-08-11T18:26:30.994Z,101418.56
2018-08-11T18:29:01.500Z,101419.75
2018-08-11T18:31:32.081Z,101416.98
2018-08-11T18:34:02.664Z,101422.34
2018-08-11T18:36:33.035Z,101427.33
2018-08-11T18:39:03.536Z,101418.69
2018-08-11T18:41:33.990Z,101425.84
2018-08-11T18:44:04.479Z,101433.17
2018-08-11T18:46:34.968Z,101432.47
2018-08-11T18:49:05.533Z,101433.39
2018-08-11T18:51:36.296Z,101429.93
2018-08-11T18:54:07.088Z,101430.54
2018-08-11T18:56:37.430Z,101432.76
2018-08-11T18:59:08.088Z,101437.22
2018-08-11T19:01:38.566Z,101439.44
2018-08-11T19:04:09.481Z,101441.45
2018-08-11T19:06:39.981Z,101440.18
2018-08-11T19:09:13.360Z,101446.52
2018-08-11T19:11:44.031Z,101450.64
2018-08-11T19:14:14.677Z,101453.17
2018-08-11T19:16:45.353Z,101447.44
2018-08-11T19:19:15.834Z,101444.98
2018-08-11T19:21:46.196Z,101445.95
2018-08-11T19:24:16.581Z,101445.73
2018-08-11T19:26:47.124Z,101450.04
2018-08-11T19:29:17.424Z,101448.50
2018-08-11T19:31:47.715Z,101451.93
2018-08-11T19:34:18.246Z,101453.17
2018-08-11T19:36:48.779Z,101450.59
2018-08-11T19:39:19.384Z,101454.55
2018-08-11T19:41:49.936Z,101457.34
2018-08-11T19:44:20.536Z,101457.03
2018-08-11T19:46:51.134Z,101464.53
2018-08-11T19:49:21.620Z,101465.92
2018-08-11T19:51:52.152Z,101471.53
2018-08-11T19:54:22.585Z,101469.59
2018-08-11T19:56:52.947Z,101479.71
2018-08-11T19:59:23.643Z,101475.66
2018-08-11T20:01:54.211Z,101471.47
2018-08-11T20:04:24.809Z,101464.46
2018-08-11T20:06:55.404Z,101468.08
2018-08-11T20:09:26.142Z,101466.39
2018-08-11T20:11:56.683Z,101464.81
2018-08-11T20:14:27.263Z,101470.34
2018-08-11T20:16:57.841Z,101464.88
2018-08-11T20:19:28.169Z,101467.70
2018-08-11T20:21:58.607Z,101467.30
2018-08-11T20:24:29.186Z,101472.73
2018-08-11T20:26:59.544Z,101468.77
2018-08-11T20:29:30.254Z,101476.41
2018-08-11T20:32:00.931Z,101470.55
2018-08-11T20:34:31.425Z,101470.46
2018-08-11T20:37:01.808Z,101478.20
2018-08-11T20:39:32.251Z,101476.89
2018-08-11T20:42:02.744Z,101475.03
2018-08-11T20:44:33.316Z,101473.06
2018-08-11T20:47:03.970Z,101478.20
2018-08-11T20:49:34.611Z,101481.41
2018-08-11T20:52:05.488Z,101481.81
2018-08-11T20:54:36.615Z,101476.63
2018-08-11T20:57:07.108Z,101482.62
2018-08-11T20:59:37.773Z,101478.59
2018-08-11T21:02:08.456Z,101476.66
2018-08-11T21:04:39.035Z,101478.30
2018-08-11T21:07:09.608Z,101482.23
2018-08-11T21:09:40.136Z,101481.47
2018-08-11T21:12:10.795Z,101473.20
2018-08-11T21:14:41.378Z,101469.95
2018-08-11T21:17:11.862Z,101476.88
2018-08-11T21:19:42.528Z,101472.42
2018-08-11T21:22:13.233Z,101467.77
2018-08-11T21:24:43.716Z,101473.83
2018-08-11T21:27:13.969Z,101469.30
2018-08-11T21:29:44.503Z,101470.34
2018-08-11T21:32:14.933Z,101468.78
2018-08-11T21:34:45.404Z,101466.55
2018-08-11T21:37:15.928Z,101467.22
2018-08-11T21:39:46.394Z,101464.34
2018-08-11T21:42:17.132Z,101463.87
2018-08-11T21:44:47.658Z,101467.22
2018-08-11T21:47:18.055Z,101465.22
2018-08-11T21:49:48.456Z,101462.83
2018-08-11T21:52:18.778Z,101470.75
2018-08-11T21:54:49.446Z,101468.39
2018-08-11T21:57:19.975Z,101464.36
2018-08-11T21:59:50.554Z,101465.97
2018-08-11T22:02:21.143Z,101464.03
2018-08-11T22:04:51.982Z,101466.28
2018-08-11T22:07:22.423Z,101458.56
2018-08-11T22:09:53.021Z,101462.36
2018-08-11T22:12:23.403Z,101459.28
2018-08-11T22:14:53.825Z,101461.20
2018-08-11T22:17:24.253Z,101460.20
2018-08-11T22:19:54.825Z,101459.81
2018-08-11T22:22:25.272Z,101456.83
2018-08-11T22:24:55.895Z,101457.78
2018-08-11T22:27:26.376Z,101457.31
2018-08-11T22:29:56.948Z,101451.80
2018-08-11T22:32:27.447Z,101455.09
2018-08-11T22:34:57.840Z,101459.31
2018-08-11T22:37:28.224Z,101451.95
2018-08-11T22:39:58.679Z,101458.09
2018-08-11T22:42:29.264Z,101454.39
2018-08-11T22:44:59.924Z,101447.79
2018-08-11T22:47:30.731Z,101446.89
2018-08-11T22:50:01.197Z,101444.80
2018-08-11T22:52:31.704Z,101443.20
2018-08-11T22:55:02.201Z,101441.30
2018-08-11T22:57:32.556Z,101434.55
2018-08-11T23:00:03.195Z,101436.00
2018-08-11T23:02:33.634Z,101437.36
2018-08-11T23:05:04.164Z,101431.62
2018-08-11T23:07:34.690Z,101431.08
2018-08-11T23:10:05.939Z,101433.16
2018-08-11T23:12:36.452Z,101435.77
2018-08-11T23:15:09.671Z,101426.93
2018-08-11T23:17:40.578Z,101428.25
2018-08-11T23:20:11.996Z,101419.95
2018-08-11T23:22:42.635Z,101422.56
2018-08-11T23:25:13.814Z,101420.03
2018-08-11T23:27:44.307Z,101426.24
2018-08-11T23:30:16.756Z,101425.69
2018-08-11T23:32:47.210Z,101418.02
2018-08-11T23:35:17.671Z,101416.65
2018-08-11T23:37:48.119Z,101417.48
2018-08-11T23:40:18.887Z,101421.00
2018-08-11T23:42:49.420Z,101419.93
2018-08-11T23:45:20.009Z,101420.72
2018-08-11T23:47:50.593Z,101418.70
2018-08-11T23:50:20.896Z,101416.49
2018-08-11T23:52:51.243Z,101411.41
2018-08-11T23:55:21.828Z,101409.22
2018-08-11T23:57:52.360Z,101411.64
